Time;durP1;ratioP1;P1;durP2;ratioP2;P2;SDS_P1;SDS_P2;PMS_P1;PMS_P2;Temp;Humidity;BMP_temperature;BMP_pressure;BME280_temperature;BME280_humidity;BME280_pressure;Samples;Min_cycle;Max_cycle;Signal;HPM_P1;HPM_P2
2021/12/23 00:02:17;;;;;;;10.10;5.57;;;;;;;;;;5090890;28;20077;-80
2021/12/23 00:04:45;;;;;;;12.00;5.45;;;;;;;;;;5090885;28;20035;-81
2021/12/23 00:07:11;;;;;;;14.02;6.00;;;;;;;;;;5091475;28;20039;-81
2021/12/23 00:10:05;;;;;;;17.58;7.32;;;;;;;;;;5089412;28;20028;-80
2021/12/23 00:12:31;;;;;;;10.02;5.72;;;;;;;;;;5087079;28;20403;-81
2021/12/23 00:14:56;;;;;;;17.27;8.45;;;;;;;;;;5091138;28;20042;-81
2021/12/23 00:17:39;;;;;;;13.40;6.30;;;;;;;;;;5088167;28;20028;-79
2021/12/23 00:25:15;;;;;;;9.10;5.68;;;;;;;;;;5085635;28;20047;-80
2021/12/23 00:27:42;;;;;;;10.20;5.35;;;;;;;;;;5088151;28;20052;-80
2021/12/23 00:30:08;;;;;;;11.48;5.68;;;;;;;;;;5085220;28;20038;-82
2021/12/23 00:32:33;;;;;;;14.82;6.18;;;;;;;;;;5086957;28;20085;-80
2021/12/23 00:34:59;;;;;;;15.88;9.80;;;;;;;;;;5087534;28;20027;-81
2021/12/23 00:37:24;;;;;;;16.67;9.07;;;;;;;;;;5090197;28;20021;-80
2021/12/23 00:39:51;;;;;;;14.15;7.78;;;;;;;;;;5089697;28;20543;-81
2021/12/23 00:42:17;;;;;;;15.60;7.00;;;;;;;;;;5090033;28;20031;-79
2021/12/23 00:44:47;;;;;;;15.07;7.05;;;;;;;;;;5079631;28;20032;-80
2021/12/23 00:47:14;;;;;;;;;;;;;;;;;;5089428;28;20027;-79
2021/12/23 00:49:39;;;;;;;10.70;4.88;;;;;;;;;;5088850;28;20279;-79
2021/12/23 00:52:08;;;;;;;7.00;3.75;;;;;;;;;;5089585;28;20028;-80
2021/12/23 00:54:33;;;;;;;8.43;4.32;;;;;;;;;;5087576;28;20069;-80
2021/12/23 00:56:59;;;;;;;7.72;4.80;;;;;;;;;;5088424;28;20521;-80
2021/12/23 00:59:24;;;;;;;4.72;3.10;;;;;;;;;;5089266;28;20064;-82
2021/12/23 01:01:50;;;;;;;5.95;3.42;;;;;;;;;;5085226;28;20031;-80
2021/12/23 01:04:16;;;;;;;7.50;4.22;;;;;;;;;;5087176;28;20027;-78
2021/12/23 01:06:41;;;;;;;7.60;3.85;;;;;;;;;;5089944;28;20209;-79
2021/12/23 01:09:07;;;;;;;3.75;2.00;;;;;;;;;;5085429;28;20024;-81
2021/12/23 01:11:33;;;;;;;6.45;3.38;;;;;;;;;;5089464;28;20027;-80
2021/12/23 01:14:02;;;;;;;7.55;3.70;;;;;;;;;;5091234;28;20730;-84
2021/12/23 01:19:24;;;;;;;11.02;5.85;;;;;;;;;;5037702;28;20032;-81
2021/12/23 01:21:49;;;;;;;9.48;4.30;;;;;;;;;;5092355;28;20024;-80
2021/12/23 01:24:15;;;;;;;8.15;4.03;;;;;;;;;;5092066;28;20348;-81
2021/12/23 01:26:41;;;;;;;5.63;3.05;;;;;;;;;;5092716;28;20123;-83
2021/12/23 01:29:08;;;;;;;6.90;2.85;;;;;;;;;;5092091;28;20111;-79
2021/12/23 01:31:34;;;;;;;5.32;2.30;;;;;;;;;;5090907;28;20399;-80
2021/12/23 01:34:01;;;;;;;7.30;3.15;;;;;;;;;;5085774;28;20032;-79
2021/12/23 01:36:27;;;;;;;6.80;3.67;;;;;;;;;;5086504;28;20438;-80
2021/12/23 01:38:53;;;;;;;9.27;3.88;;;;;;;;;;5094126;28;20043;-80
2021/12/23 01:41:21;;;;;;;4.88;2.45;;;;;;;;;;5092225;28;20035;-81
2021/12/23 01:43:47;;;;;;;7.90;3.40;;;;;;;;;;5087626;28;20024;-83
2021/12/23 01:46:14;;;;;;;6.43;2.85;;;;;;;;;;5088914;28;20055;-81
2021/12/23 01:48:40;;;;;;;4.10;2.13;;;;;;;;;;5085238;28;20106;-79
2021/12/23 01:51:06;;;;;;;7.10;4.82;;;;;;;;;;5089540;28;20515;-81
2021/12/23 01:53:31;;;;;;;5.40;3.40;;;;;;;;;;5089070;28;20111;-80
2021/12/23 01:55:59;;;;;;;5.55;3.17;;;;;;;;;;5091365;28;20388;-82
2021/12/23 01:58:25;;;;;;;3.38;2.97;;;;;;;;;;5093849;28;20027;-81
2021/12/23 02:00:52;;;;;;;4.53;2.75;;;;;;;;;;5088145;28;20043;-81
2021/12/23 02:03:18;;;;;;;5.05;3.10;;;;;;;;;;5089322;28;20032;-81
2021/12/23 02:05:43;;;;;;;7.40;2.70;;;;;;;;;;5093160;28;20519;-83
2021/12/23 02:08:09;;;;;;;5.20;3.00;;;;;;;;;;5085407;28;20107;-79
2021/12/23 02:10:35;;;;;;;5.57;2.75;;;;;;;;;;5090184;28;20424;-80
2021/12/23 02:13:01;;;;;;;5.93;2.47;;;;;;;;;;5093728;28;20039;-81
2021/12/23 02:15:27;;;;;;;4.57;2.53;;;;;;;;;;5087485;28;20076;-81
2021/12/23 02:17:53;;;;;;;5.90;1.85;;;;;;;;;;5093536;28;20041;-85
2021/12/23 02:20:21;;;;;;;4.35;1.98;;;;;;;;;;5093471;28;20459;-84
2021/12/23 02:22:47;;;;;;;5.35;2.55;;;;;;;;;;5092406;28;20463;-81
2021/12/23 02:25:14;;;;;;;2.17;1.77;;;;;;;;;;5092871;28;20048;-79
2021/12/23 02:27:41;;;;;;;4.85;1.83;;;;;;;;;;5091164;28;20095;-82
2021/12/23 02:30:11;;;;;;;4.38;1.85;;;;;;;;;;5087360;28;20031;-79
2021/12/23 02:32:38;;;;;;;3.90;2.28;;;;;;;;;;5092032;28;20089;-82
2021/12/23 02:35:05;;;;;;;5.18;2.83;;;;;;;;;;5090516;28;20020;-81
2021/12/23 02:37:32;;;;;;;4.72;3.45;;;;;;;;;;5087712;28;20028;-82
2021/12/23 02:39:58;;;;;;;5.15;2.80;;;;;;;;;;5092029;28;20032;-80
2021/12/23 02:42:24;;;;;;;5.68;2.80;;;;;;;;;;5090638;28;20493;-80
2021/12/23 02:44:52;;;;;;;3.90;2.33;;;;;;;;;;5090060;28;20434;-81
2021/12/23 02:47:18;;;;;;;6.10;2.33;;;;;;;;;;5091891;28;20032;-79
2021/12/23 02:49:44;;;;;;;4.00;2.08;;;;;;;;;;5091328;28;20040;-80
2021/12/23 02:52:10;;;;;;;6.88;3.17;;;;;;;;;;5092746;28;20828;-80
2021/12/23 02:54:36;;;;;;;4.03;2.35;;;;;;;;;;5090449;28;20040;-78
2021/12/23 02:57:01;;;;;;;3.47;2.80;;;;;;;;;;5088784;28;20020;-80
2021/12/23 02:59:27;;;;;;;3.10;2.53;;;;;;;;;;5087465;28;20066;-79
2021/12/23 03:01:53;;;;;;;4.05;2.70;;;;;;;;;;5088258;28;20483;-81
2021/12/23 03:04:18;;;;;;;5.18;3.15;;;;;;;;;;5090575;28;20035;-78
2021/12/23 03:06:44;;;;;;;4.65;3.70;;;;;;;;;;5092144;28;20084;-79
2021/12/23 03:09:10;;;;;;;5.32;2.75;;;;;;;;;;5089423;28;20036;-80
2021/12/23 03:11:40;;;;;;;5.20;3.05;;;;;;;;;;5087350;28;20700;-81
2021/12/23 03:14:06;;;;;;;8.45;3.63;;;;;;;;;;5088579;28;20020;-80
2021/12/23 03:16:34;;;;;;;10.25;4.55;;;;;;;;;;5089180;28;20035;-79
2021/12/23 03:19:00;;;;;;;8.32;4.85;;;;;;;;;;5090558;28;20035;-79
2021/12/23 03:21:25;;;;;;;8.48;4.28;;;;;;;;;;5085679;28;20020;-78
2021/12/23 03:23:51;;;;;;;7.68;4.32;;;;;;;;;;5088297;28;20365;-78
2021/12/23 03:26:17;;;;;;;7.47;3.67;;;;;;;;;;5090663;28;20101;-79
2021/12/23 03:28:43;;;;;;;8.95;3.85;;;;;;;;;;5089123;28;20038;-78
2021/12/23 03:31:09;;;;;;;3.70;2.63;;;;;;;;;;5090124;28;20024;-80
2021/12/23 03:33:35;;;;;;;6.18;3.40;;;;;;;;;;5091743;28;20049;-80
2021/12/23 03:36:01;;;;;;;4.38;2.40;;;;;;;;;;5089859;28;20081;-79
2021/12/23 03:38:27;;;;;;;8.15;3.30;;;;;;;;;;5088520;28;20023;-78
2021/12/23 03:40:54;;;;;;;7.97;4.18;;;;;;;;;;5090930;28;20062;-79
2021/12/23 03:43:20;;;;;;;3.25;2.30;;;;;;;;;;5091574;28;20455;-79
2021/12/23 03:45:47;;;;;;;3.85;2.60;;;;;;;;;;5090529;28;20045;-78
2021/12/23 03:48:14;;;;;;;3.90;2.20;;;;;;;;;;5090347;28;20032;-79
2021/12/23 03:50:40;;;;;;;2.05;1.77;;;;;;;;;;5089304;28;20387;-79
2021/12/23 03:53:06;;;;;;;3.08;2.10;;;;;;;;;;5090660;28;20060;-79
2021/12/23 03:55:32;;;;;;;2.15;1.70;;;;;;;;;;5083857;28;20062;-82
2021/12/23 03:57:57;;;;;;;3.13;2.05;;;;;;;;;;5087145;28;20090;-80
2021/12/23 04:00:23;;;;;;;2.25;1.20;;;;;;;;;;5087091;28;20103;-81
2021/12/23 04:02:50;;;;;;;2.58;1.40;;;;;;;;;;5090242;28;20483;-80
2021/12/23 04:05:16;;;;;;;3.08;1.95;;;;;;;;;;5091317;28;20036;-81
2021/12/23 04:07:42;;;;;;;2.60;2.08;;;;;;;;;;5083695;28;20024;-81
2021/12/23 04:10:10;;;;;;;4.35;2.75;;;;;;;;;;5088123;28;20040;-80
2021/12/23 04:12:35;;;;;;;4.43;2.65;;;;;;;;;;5089937;28;20070;-79
2021/12/23 04:15:01;;;;;;;3.47;2.20;;;;;;;;;;5089542;28;20043;-79
2021/12/23 04:17:27;;;;;;;3.45;2.40;;;;;;;;;;5089521;28;20109;-78
2021/12/23 04:19:59;;;;;;;2.72;1.75;;;;;;;;;;5088822;28;20474;-80
2021/12/23 04:22:25;;;;;;;4.22;2.15;;;;;;;;;;5090106;28;20012;-79
2021/12/23 04:24:51;;;;;;;5.22;2.58;;;;;;;;;;5087601;28;20575;-80
2021/12/23 04:27:16;;;;;;;2.97;2.10;;;;;;;;;;5086230;28;20036;-79
2021/12/23 04:29:42;;;;;;;3.50;2.28;;;;;;;;;;5091938;28;20046;-80
2021/12/23 04:32:08;;;;;;;4.55;2.47;;;;;;;;;;5091839;28;20051;-79
2021/12/23 04:34:33;;;;;;;5.72;3.00;;;;;;;;;;5086619;28;20042;-81
2021/12/23 04:36:58;;;;;;;6.00;3.33;;;;;;;;;;5088242;28;20107;-79
2021/12/23 04:39:24;;;;;;;4.28;1.58;;;;;;;;;;5089249;28;20063;-80
2021/12/23 04:41:49;;;;;;;3.05;1.50;;;;;;;;;;5091564;28;20475;-80
2021/12/23 04:44:16;;;;;;;4.50;1.60;;;;;;;;;;5090308;28;20047;-80
2021/12/23 04:46:41;;;;;;;3.70;1.77;;;;;;;;;;5090166;28;20023;-79
2021/12/23 04:49:07;;;;;;;7.10;3.42;;;;;;;;;;5090573;28;20101;-81
2021/12/23 04:51:32;;;;;;;4.55;2.17;;;;;;;;;;5093274;28;20446;-81
2021/12/23 04:53:58;;;;;;;3.03;1.88;;;;;;;;;;5091732;28;20116;-80
2021/12/23 04:56:25;;;;;;;2.97;2.53;;;;;;;;;;5095480;28;20024;-79
2021/12/23 04:58:50;;;;;;;2.65;1.75;;;;;;;;;;5093340;28;20103;-79
2021/12/23 05:01:28;;;;;;;3.17;2.00;;;;;;;;;;5094492;28;20103;-79
2021/12/23 05:03:53;;;;;;;4.63;2.50;;;;;;;;;;5086351;28;20035;-79
2021/12/23 05:06:19;;;;;;;3.97;2.03;;;;;;;;;;5093924;28;20384;-80
2021/12/23 05:08:45;;;;;;;3.70;1.98;;;;;;;;;;5094185;28;20107;-78
2021/12/23 05:11:10;;;;;;;2.88;2.35;;;;;;;;;;5089533;28;20084;-79
2021/12/23 05:13:36;;;;;;;5.10;3.30;;;;;;;;;;5094102;28;20028;-80
2021/12/23 05:16:02;;;;;;;3.92;2.60;;;;;;;;;;5092842;28;20139;-80
2021/12/23 05:18:27;;;;;;;5.68;3.55;;;;;;;;;;5091318;28;20029;-79
2021/12/23 05:20:54;;;;;;;3.13;1.67;;;;;;;;;;5089165;28;20039;-80
2021/12/23 05:23:19;;;;;;;3.22;2.58;;;;;;;;;;5093306;28;20088;-80
2021/12/23 05:25:45;;;;;;;6.45;4.10;;;;;;;;;;5087940;28;20119;-81
2021/12/23 05:28:11;;;;;;;4.72;2.60;;;;;;;;;;5094561;28;20103;-79
2021/12/23 05:30:37;;;;;;;4.03;2.42;;;;;;;;;;5078900;28;20536;-79
2021/12/23 05:33:04;;;;;;;2.50;2.00;;;;;;;;;;5090683;28;20111;-80
2021/12/23 05:35:29;;;;;;;5.50;2.75;;;;;;;;;;5093896;28;20024;-79
2021/12/23 05:37:55;;;;;;;5.07;1.95;;;;;;;;;;5093037;28;20666;-79
2021/12/23 05:40:23;;;;;;;2.03;1.55;;;;;;;;;;5089441;28;20032;-78
2021/12/23 05:42:49;;;;;;;3.05;2.42;;;;;;;;;;5093061;28;20452;-80
2021/12/23 05:45:16;;;;;;;2.15;1.73;;;;;;;;;;5093058;28;20111;-81
2021/12/23 05:47:43;;;;;;;2.40;1.35;;;;;;;;;;5092542;28;20028;-80
2021/12/23 05:50:10;;;;;;;2.42;1.70;;;;;;;;;;5092059;28;20035;-81
2021/12/23 05:52:36;;;;;;;4.70;2.75;;;;;;;;;;5091805;28;20488;-80
2021/12/23 05:55:04;;;;;;;2.65;1.88;;;;;;;;;;5090063;28;20024;-79
2021/12/23 05:57:30;;;;;;;2.92;2.13;;;;;;;;;;5090840;28;20420;-78
2021/12/23 05:59:56;;;;;;;3.00;1.45;;;;;;;;;;5091929;28;20112;-79
2021/12/23 06:02:21;;;;;;;2.35;1.45;;;;;;;;;;5091212;28;20024;-79
2021/12/23 06:04:47;;;;;;;2.50;1.42;;;;;;;;;;5093939;28;20032;-79
2021/12/23 06:07:13;;;;;;;3.50;1.15;;;;;;;;;;5093748;28;20402;-79
2021/12/23 06:09:38;;;;;;;1.92;1.52;;;;;;;;;;5092933;28;20527;-79
2021/12/23 06:12:04;;;;;;;2.50;1.33;;;;;;;;;;5092896;28;20064;-80
2021/12/23 06:14:30;;;;;;;3.22;1.30;;;;;;;;;;5091443;28;20116;-81
2021/12/23 06:16:55;;;;;;;2.88;1.30;;;;;;;;;;5090349;28;20109;-82
2021/12/23 06:19:21;;;;;;;2.47;1.88;;;;;;;;;;5091552;28;20459;-79
2021/12/23 06:21:46;;;;;;;1.65;1.23;;;;;;;;;;5090767;28;20036;-79
2021/12/23 06:24:12;;;;;;;1.67;1.48;;;;;;;;;;5089472;28;20096;-77
2021/12/23 06:26:37;;;;;;;2.28;1.50;;;;;;;;;;5089955;28;20384;-79
2021/12/23 06:29:03;;;;;;;2.42;2.10;;;;;;;;;;5088642;28;20036;-82
2021/12/23 06:31:28;;;;;;;1.67;1.27;;;;;;;;;;5090608;28;20032;-82
2021/12/23 06:33:54;;;;;;;2.63;1.40;;;;;;;;;;5085879;28;20425;-80
2021/12/23 06:36:20;;;;;;;1.55;1.45;;;;;;;;;;5088221;28;20030;-80
2021/12/23 06:38:46;;;;;;;2.05;1.52;;;;;;;;;;5090317;28;20379;-81
2021/12/23 06:41:12;;;;;;;3.83;2.00;;;;;;;;;;5088686;28;20042;-80
2021/12/23 06:43:39;;;;;;;3.00;2.33;;;;;;;;;;5092405;28;20035;-81
2021/12/23 06:46:04;;;;;;;3.45;2.17;;;;;;;;;;5087964;28;20468;-80
2021/12/23 06:48:32;;;;;;;9.13;4.25;;;;;;;;;;5089056;28;20031;-79
2021/12/23 06:50:59;;;;;;;8.80;3.53;;;;;;;;;;5085992;28;20028;-79
2021/12/23 06:53:25;;;;;;;8.05;4.50;;;;;;;;;;5092003;28;20034;-80
2021/12/23 06:55:51;;;;;;;10.63;6.38;;;;;;;;;;5091031;28;20016;-81
2021/12/23 06:58:20;;;;;;;14.23;8.18;;;;;;;;;;5087241;28;20020;-79
2021/12/23 07:00:46;;;;;;;31.83;15.63;;;;;;;;;;5086555;28;20036;-80
2021/12/23 07:03:12;;;;;;;48.20;21.20;;;;;;;;;;5089801;28;20031;-81
2021/12/23 07:05:38;;;;;;;30.67;19.25;;;;;;;;;;5090019;28;20035;-79
2021/12/23 07:08:12;;;;;;;25.13;12.43;;;;;;;;;;5087687;28;20029;-79
2021/12/23 07:10:39;;;;;;;12.23;7.35;;;;;;;;;;5087447;28;20455;-79
2021/12/23 07:13:05;;;;;;;11.40;6.10;;;;;;;;;;5086968;28;20069;-80
2021/12/23 07:15:32;;;;;;;8.85;6.18;;;;;;;;;;5087806;28;20023;-79
2021/12/23 07:17:59;;;;;;;9.45;5.93;;;;;;;;;;5080849;28;20085;-80
2021/12/23 07:20:26;;;;;;;9.45;5.22;;;;;;;;;;5089821;28;20050;-80
2021/12/23 07:22:51;;;;;;;12.68;6.03;;;;;;;;;;5090913;28;20059;-79
2021/12/23 07:25:17;;;;;;;8.73;6.47;;;;;;;;;;5086967;28;20442;-80
2021/12/23 07:27:44;;;;;;;18.20;10.07;;;;;;;;;;5089320;28;20036;-82
2021/12/23 07:30:13;;;;;;;17.40;11.73;;;;;;;;;;5088692;28;20048;-79
2021/12/23 07:32:38;;;;;;;17.83;11.65;;;;;;;;;;5088524;28;20407;-80
2021/12/23 07:35:05;;;;;;;24.65;11.80;;;;;;;;;;5088591;28;20036;-80
2021/12/23 07:37:31;;;;;;;18.80;11.93;;;;;;;;;;5086626;28;20115;-80
2021/12/23 07:39:57;;;;;;;21.42;12.15;;;;;;;;;;5088939;28;20111;-79
2021/12/23 07:42:25;;;;;;;22.65;12.98;;;;;;;;;;5090585;28;20107;-79
2021/12/23 07:44:50;;;;;;;30.90;16.73;;;;;;;;;;5088002;28;20034;-79
2021/12/23 07:47:17;;;;;;;28.70;12.38;;;;;;;;;;5086941;28;20040;-78
2021/12/23 07:49:43;;;;;;;23.85;11.25;;;;;;;;;;5087729;28;20472;-80
2021/12/23 07:52:09;;;;;;;18.35;10.27;;;;;;;;;;5085571;28;20021;-79
2021/12/23 07:54:35;;;;;;;22.23;11.23;;;;;;;;;;5085911;28;20387;-78
2021/12/23 07:57:02;;;;;;;18.40;10.75;;;;;;;;;;5089602;28;20428;-78
2021/12/23 07:59:28;;;;;;;16.33;9.57;;;;;;;;;;5085701;28;22002;-79
2021/12/23 08:01:55;;;;;;;49.03;23.38;;;;;;;;;;5089883;28;20159;-80
2021/12/23 08:04:21;;;;;;;35.55;16.65;;;;;;;;;;5084561;28;20035;-79
2021/12/23 08:06:52;;;;;;;15.45;10.00;;;;;;;;;;5081970;28;20025;-79
2021/12/23 08:09:17;;;;;;;20.58;11.18;;;;;;;;;;5088844;28;20020;-79
2021/12/23 08:11:43;;;;;;;19.92;11.77;;;;;;;;;;5084654;28;20027;-80
2021/12/23 08:14:08;;;;;;;23.65;13.27;;;;;;;;;;5089822;28;20456;-80
2021/12/23 08:16:34;;;;;;;32.17;14.57;;;;;;;;;;5088040;28;20064;-81
2021/12/23 08:18:59;;;;;;;26.52;16.17;;;;;;;;;;5087731;28;20089;-82
2021/12/23 08:21:26;;;;;;;23.58;12.93;;;;;;;;;;5087136;28;20032;-81
2021/12/23 08:23:52;;;;;;;24.92;12.10;;;;;;;;;;5090379;28;20048;-79
2021/12/23 08:26:21;;;;;;;22.27;12.60;;;;;;;;;;5089972;28;20042;-80
2021/12/23 08:28:47;;;;;;;18.48;10.90;;;;;;;;;;5087239;28;20085;-81
2021/12/23 08:31:13;;;;;;;17.85;10.18;;;;;;;;;;5090191;28;20032;-79
2021/12/23 08:33:38;;;;;;;23.45;11.30;;;;;;;;;;5085794;28;20111;-79
2021/12/23 08:36:04;;;;;;;18.35;12.02;;;;;;;;;;5085926;28;20024;-79
2021/12/23 08:38:29;;;;;;;19.13;11.30;;;;;;;;;;5089272;28;20020;-80
2021/12/23 08:40:56;;;;;;;19.50;9.38;;;;;;;;;;5088557;28;20035;-80
2021/12/23 08:43:22;;;;;;;16.65;10.23;;;;;;;;;;5090796;28;20024;-81
2021/12/23 08:45:48;;;;;;;19.67;12.05;;;;;;;;;;5090184;28;20032;-79
2021/12/23 08:48:14;;;;;;;20.52;11.52;;;;;;;;;;5089562;28;20043;-80
2021/12/23 08:50:40;;;;;;;20.45;11.02;;;;;;;;;;5088981;28;20062;-80
2021/12/23 08:53:05;;;;;;;17.40;10.70;;;;;;;;;;5083657;28;20051;-80
2021/12/23 08:55:33;;;;;;;17.95;10.43;;;;;;;;;;5084647;28;20035;-80
2021/12/23 08:58:03;;;;;;;20.15;9.65;;;;;;;;;;5087337;28;20028;-79
2021/12/23 09:00:31;;;;;;;20.80;11.60;;;;;;;;;;5087275;28;20024;-80
2021/12/23 09:02:57;;;;;;;17.23;10.15;;;;;;;;;;5088733;28;20016;-80
2021/12/23 09:05:23;;;;;;;19.60;10.93;;;;;;;;;;5091256;28;20024;-80
2021/12/23 09:07:50;;;;;;;16.02;10.57;;;;;;;;;;5089120;28;20068;-78
2021/12/23 09:10:16;;;;;;;16.05;9.48;;;;;;;;;;5086916;28;20039;-79
2021/12/23 09:12:42;;;;;;;17.23;11.15;;;;;;;;;;5085095;28;20807;-79
2021/12/23 09:15:09;;;;;;;18.30;10.30;;;;;;;;;;5088778;28;20119;-80
2021/12/23 09:17:35;;;;;;;20.60;10.68;;;;;;;;;;5088356;28;20024;-80
2021/12/23 09:20:01;;;;;;;24.02;11.50;;;;;;;;;;5084490;28;20020;-80
2021/12/23 09:22:26;;;;;;;20.60;10.88;;;;;;;;;;5088995;28;20019;-82
2021/12/23 09:24:56;;;;;;;22.75;11.90;;;;;;;;;;5087354;28;20396;-81
2021/12/23 09:28:03;;;;;;;;;;;;;;;;;;5086941;28;20426;-80
2021/12/23 09:33:02;;;;;;;20.27;12.05;;;;;;;;;;5088899;28;20034;-81
2021/12/23 09:35:29;;;;;;;15.05;9.50;;;;;;;;;;5086790;28;20460;-80
2021/12/23 09:37:55;;;;;;;20.02;11.93;;;;;;;;;;5089752;28;20479;-80
2021/12/23 09:40:23;;;;;;;25.20;11.23;;;;;;;;;;5092389;28;20504;-81
2021/12/23 09:42:50;;;;;;;13.65;7.82;;;;;;;;;;5087793;28;20120;-80
2021/12/23 09:45:18;;;;;;;11.50;7.68;;;;;;;;;;5086193;28;20048;-81
2021/12/23 09:47:46;;;;;;;13.35;8.40;;;;;;;;;;5091325;28;20034;-79
2021/12/23 09:50:15;;;;;;;15.00;10.63;;;;;;;;;;5092893;28;20089;-82
2021/12/23 09:52:49;;;;;;;18.58;10.40;;;;;;;;;;5092804;28;20032;-79
2021/12/23 09:55:17;;;;;;;16.17;10.10;;;;;;;;;;5092480;28;20020;-80
2021/12/23 09:57:45;;;;;;;16.15;9.02;;;;;;;;;;5093233;28;20035;-79
2021/12/23 10:00:11;;;;;;;21.90;8.57;;;;;;;;;;5091806;28;20085;-79
2021/12/23 10:02:41;;;;;;;13.70;8.68;;;;;;;;;;5087706;28;20380;-79
2021/12/23 10:05:13;;;;;;;14.18;7.70;;;;;;;;;;5085510;28;20490;-79
2021/12/23 10:07:41;;;;;;;13.38;7.63;;;;;;;;;;5087562;28;20020;-79
2021/12/23 10:10:18;;;;;;;12.82;8.00;;;;;;;;;;5087659;28;20055;-79
2021/12/23 10:32:20;;;;;;;18.85;8.80;;;;;;;;;;5090235;28;20081;-79
2021/12/23 10:37:21;;;;;;;16.88;9.77;;;;;;;;;;5089204;28;20054;-79
2021/12/23 10:40:14;;;;;;;15.65;8.05;;;;;;;;;;5089089;28;20056;-77
2021/12/23 10:42:49;;;;;;;13.77;8.35;;;;;;;;;;5087831;28;20039;-82
2021/12/23 10:45:16;;;;;;;15.07;8.07;;;;;;;;;;5102104;28;20029;-82
2021/12/23 10:47:57;;;;;;;15.07;9.43;;;;;;;;;;5091584;28;20404;-82
2021/12/23 10:50:56;;;;;;;15.77;9.20;;;;;;;;;;5086440;28;20073;-80
2021/12/23 10:57:57;;;;;;;20.05;9.45;;;;;;;;;;5086820;28;20032;-79
2021/12/23 10:59:20;;;;;;;11.95;8.20;;;;;;;;;;5083089;28;20446;-78
2021/12/23 11:02:06;;;;;;;15.38;10.60;;;;;;;;;;5088645;28;20039;-76
2021/12/23 11:04:47;;;;;;;18.60;10.68;;;;;;;;;;5084454;28;20423;-76
2021/12/23 11:07:24;;;;;;;16.65;10.27;;;;;;;;;;5088592;28;20076;-80
2021/12/23 11:10:10;;;;;;;18.15;8.73;;;;;;;;;;5089186;28;20488;-80
2021/12/23 11:37:55;;;;;;;21.70;10.55;;;;;;;;;;5079672;28;20043;-79
2021/12/23 11:43:26;;;;;;;22.80;12.65;;;;;;;;;;5087642;28;20039;-81
2021/12/23 11:45:51;;;;;;;20.38;12.98;;;;;;;;;;5089409;28;20032;-79
2021/12/23 11:48:17;;;;;;;29.40;16.48;;;;;;;;;;5087208;28;20059;-80
2021/12/23 11:51:07;;;;;;;21.80;13.07;;;;;;;;;;5083837;28;20539;-80
2021/12/23 11:53:29;;;;;;;21.75;12.73;;;;;;;;;;5083870;28;20032;-80
2021/12/23 11:55:55;;;;;;;28.83;13.65;;;;;;;;;;5089775;28;20031;-82
2021/12/23 11:58:25;;;;;;;25.63;13.35;;;;;;;;;;5089245;28;20028;-80
2021/12/23 12:01:06;;;;;;;23.77;13.00;;;;;;;;;;5088431;28;20031;-80
2021/12/23 12:04:00;;;;;;;24.23;11.48;;;;;;;;;;5088924;28;20425;-80
2021/12/23 12:06:42;;;;;;;21.33;11.70;;;;;;;;;;5090344;28;20043;-80
2021/12/23 12:09:14;;;;;;;18.27;11.82;;;;;;;;;;5089336;28;20488;-79
2021/12/23 12:11:46;;;;;;;25.00;11.93;;;;;;;;;;5119640;27;20028;-80
2021/12/23 12:14:40;;;;;;;23.38;13.27;;;;;;;;;;5088948;28;20042;-80
2021/12/23 12:17:30;;;;;;;21.33;11.43;;;;;;;;;;5088749;28;20049;-80
2021/12/23 12:20:03;;;;;;;17.67;10.73;;;;;;;;;;5089843;28;20503;-81
2021/12/23 12:22:50;;;;;;;17.80;11.00;;;;;;;;;;5087026;28;20028;-79
2021/12/23 12:25:25;;;;;;;23.67;12.18;;;;;;;;;;5083078;28;20044;-79
2021/12/23 12:28:21;;;;;;;25.92;13.32;;;;;;;;;;5085445;28;20043;-79
2021/12/23 12:31:02;;;;;;;18.33;10.27;;;;;;;;;;5091079;28;20464;-80
2021/12/23 12:33:28;;;;;;;24.17;10.85;;;;;;;;;;5088821;28;20043;-82
2021/12/23 12:36:02;;;;;;;23.23;12.50;;;;;;;;;;5088790;28;20024;-81
2021/12/23 12:38:37;;;;;;;20.45;10.50;;;;;;;;;;5082095;28;21001;-81
2021/12/23 12:41:09;;;;;;;16.90;9.35;;;;;;;;;;5118364;28;20024;-80
2021/12/23 12:43:49;;;;;;;22.05;11.40;;;;;;;;;;5086967;28;20027;-79
2021/12/23 12:49:28;;;;;;;19.10;12.60;;;;;;;;;;5086615;28;20491;-80
2021/12/23 12:51:55;;;;;;;;;;;;;;;;;;5085399;28;20031;-82
2021/12/23 12:54:33;;;;;;;17.38;9.10;;;;;;;;;;5088635;28;19914;-80
2021/12/23 12:57:04;;;;;;;18.65;9.73;;;;;;;;;;5086457;28;20028;-79
2021/12/23 12:59:35;;;;;;;25.25;11.18;;;;;;;;;;5121041;28;20028;-79
2021/12/23 13:02:02;;;;;;;21.63;11.98;;;;;;;;;;5085881;28;20048;-81
2021/12/23 13:04:34;;;;;;;20.33;10.48;;;;;;;;;;5085086;28;20020;-80
2021/12/23 13:07:22;;;;;;;19.23;11.15;;;;;;;;;;5087818;28;20472;-78
2021/12/23 13:09:59;;;;;;;17.33;8.80;;;;;;;;;;5085211;28;20020;-79
2021/12/23 13:12:32;;;;;;;16.27;9.00;;;;;;;;;;5087641;28;20388;-79
2021/12/23 13:15:19;;;;;;;15.82;9.25;;;;;;;;;;5090549;28;20136;-81
2021/12/23 13:17:53;;;;;;;22.50;8.30;;;;;;;;;;5088572;28;20032;-78
2021/12/23 13:20:35;;;;;;;12.88;7.53;;;;;;;;;;5093472;28;20495;-80
2021/12/23 13:23:03;;;;;;;14.68;8.30;;;;;;;;;;5089146;28;20107;-79
2021/12/23 13:25:29;;;;;;;16.50;7.55;;;;;;;;;;5089701;28;20067;-78
2021/12/23 13:27:54;;;;;;;24.52;11.50;;;;;;;;;;5092327;28;20405;-79
2021/12/23 13:30:20;;;;;;;21.25;9.75;;;;;;;;;;5090190;28;20028;-79
2021/12/23 13:33:01;;;;;;;11.65;7.25;;;;;;;;;;5090633;28;20060;-78
2021/12/23 13:35:28;;;;;;;14.93;9.02;;;;;;;;;;5092153;28;20020;-79
2021/12/23 13:37:54;;;;;;;19.95;10.77;;;;;;;;;;5092909;28;20111;-79
2021/12/23 13:40:38;;;;;;;12.55;7.25;;;;;;;;;;5092937;28;20102;-78
2021/12/23 13:43:04;;;;;;;12.25;6.90;;;;;;;;;;5090323;28;20028;-79
2021/12/23 13:45:32;;;;;;;18.13;9.38;;;;;;;;;;5090372;28;20104;-82
2021/12/23 13:47:59;;;;;;;15.25;6.97;;;;;;;;;;5090276;28;20028;-81
2021/12/23 13:50:27;;;;;;;13.63;6.72;;;;;;;;;;5091540;28;20034;-80
2021/12/23 13:52:54;;;;;;;12.10;6.35;;;;;;;;;;5093311;28;20059;-81
2021/12/23 13:55:21;;;;;;;15.77;8.45;;;;;;;;;;5094016;28;20032;-80
2021/12/23 13:57:51;;;;;;;19.63;8.60;;;;;;;;;;5092300;28;20054;-81
2021/12/23 14:00:28;;;;;;;;;;;;;;;;;;5091716;28;20107;-80
2021/12/23 14:03:14;;;;;;;14.77;7.50;;;;;;;;;;5089413;28;20057;-81
2021/12/23 14:05:42;;;;;;;20.23;9.02;;;;;;;;;;5091457;28;20036;-81
2021/12/23 14:08:09;;;;;;;19.13;8.65;;;;;;;;;;5089383;28;20357;-81
2021/12/23 14:10:38;;;;;;;21.80;9.68;;;;;;;;;;5092354;28;20073;-79
2021/12/23 14:13:03;;;;;;;10.43;5.72;;;;;;;;;;5086377;28;20452;-80
2021/12/23 14:15:35;;;;;;;11.00;6.20;;;;;;;;;;5091787;28;20102;-81
2021/12/23 14:23:57;;;;;;;15.88;7.22;;;;;;;;;;5091446;28;20051;-81
2021/12/23 14:26:29;;;;;;;14.05;8.30;;;;;;;;;;5089568;28;20139;-78
2021/12/23 14:29:02;;;;;;;14.18;7.38;;;;;;;;;;5087210;28;20388;-78
2021/12/23 14:31:29;;;;;;;14.88;7.85;;;;;;;;;;5091314;28;20016;-80
2021/12/23 14:33:59;;;;;;;11.27;6.85;;;;;;;;;;5085682;28;20039;-79
2021/12/23 14:36:37;;;;;;;15.63;7.38;;;;;;;;;;5091235;28;20496;-81
2021/12/23 14:39:23;;;;;;;13.75;6.32;;;;;;;;;;5085762;28;20036;-80
2021/12/23 14:41:54;;;;;;;9.55;6.07;;;;;;;;;;5086445;28;20028;-82
2021/12/23 14:44:28;;;;;;;11.13;5.78;;;;;;;;;;5119940;27;20031;-80
2021/12/23 14:47:08;;;;;;;11.38;6.30;;;;;;;;;;5090275;28;20028;-80
2021/12/23 14:52:19;;;;;;;9.50;6.57;;;;;;;;;;5090495;28;20518;-80
2021/12/23 14:54:49;;;;;;;9.73;4.93;;;;;;;;;;5083100;28;20471;-79
2021/12/23 14:57:17;;;;;;;10.68;6.18;;;;;;;;;;5090226;28;20106;-79
2021/12/23 14:59:54;;;;;;;21.30;12.45;;;;;;;;;;5090639;28;20491;-80
2021/12/23 15:02:23;;;;;;;12.35;6.90;;;;;;;;;;5086271;28;20062;-78
2021/12/23 15:05:08;;;;;;;9.88;4.70;;;;;;;;;;5086975;28;20025;-78
2021/12/23 15:07:46;;;;;;;8.13;5.10;;;;;;;;;;5087291;28;20028;-79
2021/12/23 15:10:14;;;;;;;8.27;4.82;;;;;;;;;;5106971;28;20043;-79
2021/12/23 15:12:39;;;;;;;18.42;10.30;;;;;;;;;;5090832;28;20502;-79
2021/12/23 15:15:07;;;;;;;8.77;4.70;;;;;;;;;;5090415;28;20061;-78
2021/12/23 15:17:48;;;;;;;5.20;3.80;;;;;;;;;;5089142;28;20055;-77
2021/12/23 15:20:26;;;;;;;8.27;4.15;;;;;;;;;;5090622;28;20056;-78
2021/12/23 15:22:54;;;;;;;15.02;6.13;;;;;;;;;;5088219;28;20111;-78
2021/12/23 15:25:20;;;;;;;11.82;6.05;;;;;;;;;;5088211;28;20040;-80
2021/12/23 15:27:46;;;;;;;8.30;4.90;;;;;;;;;;5088788;28;20077;-79
2021/12/23 15:30:22;;;;;;;7.53;4.00;;;;;;;;;;5088819;28;20016;-79
2021/12/23 15:32:48;;;;;;;7.18;4.85;;;;;;;;;;5087407;28;20024;-80
2021/12/23 15:35:20;;;;;;;10.32;6.50;;;;;;;;;;5091019;28;20380;-81
2021/12/23 15:37:49;;;;;;;9.90;5.53;;;;;;;;;;5081715;28;20032;-81
2021/12/23 15:40:24;;;;;;;11.10;6.57;;;;;;;;;;5086340;28;20073;-78
2021/12/23 15:42:53;;;;;;;15.60;7.13;;;;;;;;;;5087170;28;20039;-81
2021/12/23 15:45:18;;;;;;;11.07;7.05;;;;;;;;;;5090652;28;20023;-82
2021/12/23 15:47:47;;;;;;;12.23;6.95;;;;;;;;;;5090818;28;20335;-79
2021/12/23 15:50:13;;;;;;;10.25;5.50;;;;;;;;;;5088194;28;20157;-78
2021/12/23 15:52:39;;;;;;;14.98;7.80;;;;;;;;;;5089572;28;20024;-81
2021/12/23 15:55:05;;;;;;;11.40;6.97;;;;;;;;;;5091435;28;20032;-82
2021/12/23 15:57:31;;;;;;;16.33;8.13;;;;;;;;;;5090289;28;20026;-83
2021/12/23 15:59:59;;;;;;;14.90;8.38;;;;;;;;;;5091309;28;20391;-81